createdAt,value
2019-04-07T00:01:23.185Z,68.60
2019-04-07T00:03:53.260Z,67.90
2019-04-07T00:06:23.600Z,64.23
2019-04-07T00:08:54.646Z,70.03
2019-04-07T00:11:28.066Z,70.13
2019-04-07T00:13:57.947Z,66.13
2019-04-07T00:16:29.743Z,66.97
2019-04-07T00:19:01.833Z,66.47
2019-04-07T00:21:42.848Z,62.57
2019-04-07T00:24:17.129Z,66.37
2019-04-07T00:26:51.521Z,66.77
2019-04-07T00:29:20.554Z,64.47
2019-04-07T00:32:16.802Z,69.27
2019-04-07T00:34:27.954Z,63.90
2019-04-07T00:37:00.537Z,68.23
2019-04-07T00:39:30.140Z,63.03
2019-04-07T00:42:14.776Z,62.30
2019-04-07T00:44:45.649Z,67.50
2019-04-07T00:47:15.292Z,62.10
2019-04-07T00:49:47.622Z,62.83
2019-04-07T00:52:23.715Z,63.80
2019-04-07T00:54:53.506Z,63.73
2019-04-07T00:57:25.522Z,65.60
2019-04-07T00:59:56.963Z,68.33
2019-04-07T01:02:27.635Z,62.87
2019-04-07T01:04:57.442Z,64.27
2019-04-07T01:07:26.678Z,59.37
2019-04-07T01:10:02.851Z,57.20
2019-04-07T01:12:32.633Z,59.03
2019-04-07T01:15:09.016Z,56.60
2019-04-07T01:17:37.969Z,57.80
2019-04-07T01:20:07.362Z,57.10
2019-04-07T01:22:52.731Z,55.33
2019-04-07T01:25:22.552Z,56.73
2019-04-07T01:27:52.379Z,55.10
2019-04-07T01:30:21.491Z,53.77
2019-04-07T01:32:58.188Z,57.57
2019-04-07T01:35:27.607Z,54.97
2019-04-07T01:37:59.814Z,52.30
2019-04-07T01:40:33.103Z,53.27
2019-04-07T01:43:25.903Z,56.70
2019-04-07T01:46:14.197Z,55.00
2019-04-07T01:48:57.466Z,52.97
2019-04-07T01:51:45.542Z,49.17
2019-04-07T01:54:37.225Z,49.00
2019-04-07T01:57:14.665Z,47.13
2019-04-07T02:00:06.160Z,49.47
2019-04-07T02:02:54.538Z,46.47
2019-04-07T02:05:41.771Z,48.83
2019-04-07T02:08:48.126Z,47.87
2019-04-07T02:11:42.038Z,44.10
2019-04-07T02:14:32.746Z,44.60
2019-04-07T02:17:28.447Z,41.17
2019-04-07T02:20:23.186Z,42.43
2019-04-07T02:23:11.706Z,44.53
2019-04-07T02:25:49.361Z,40.23
2019-04-07T02:28:43.134Z,39.63
2019-04-07T02:31:31.923Z,40.60
2019-04-07T02:34:29.796Z,39.40
2019-04-07T02:37:24.538Z,44.20
2019-04-07T02:40:19.165Z,37.90
2019-04-07T02:43:17.958Z,38.63
2019-04-07T02:46:12.830Z,37.10
2019-04-07T02:49:08.182Z,40.07
2019-04-07T02:51:55.096Z,39.67
2019-04-07T02:54:46.326Z,37.20
2019-04-07T02:57:22.760Z,40.00
2019-04-07T03:00:09.854Z,37.33
2019-04-07T03:03:14.097Z,35.63
2019-04-07T03:06:38.133Z,37.57
2019-04-07T03:09:11.794Z,36.70
2019-04-07T03:12:12.421Z,36.70
2019-04-07T03:15:09.059Z,34.53
2019-04-07T03:18:11.938Z,36.90
2019-04-07T03:21:02.423Z,35.20
2019-04-07T03:23:43.996Z,38.23
2019-04-07T03:26:35.253Z,34.00
2019-04-07T03:29:33.317Z,33.37
2019-04-07T03:32:37.552Z,34.77
2019-04-07T03:35:26.534Z,34.07
2019-04-07T03:38:22.258Z,35.97
2019-04-07T03:41:21.352Z,34.93
2019-04-07T03:43:59.241Z,32.70
2019-04-07T03:47:06.971Z,34.40
2019-04-07T03:49:55.055Z,32.63
2019-04-07T03:52:51.446Z,32.70
2019-04-07T03:55:42.592Z,32.43
2019-04-07T03:58:21.251Z,32.93
2019-04-07T04:01:19.060Z,30.20
2019-04-07T04:03:59.268Z,31.77
2019-04-07T04:06:47.684Z,34.30
2019-04-07T04:09:26.432Z,29.83
2019-04-07T04:12:24.348Z,31.77
2019-04-07T04:15:00.123Z,35.10
2019-04-07T04:17:30.733Z,31.67
2019-04-07T04:20:00.348Z,33.53
2019-04-07T04:22:30.662Z,31.50
2019-04-07T04:25:00.929Z,30.80
2019-04-07T04:27:31.264Z,29.77
2019-04-07T04:30:10.793Z,31.57
2019-04-07T04:32:44.390Z,30.70
2019-04-07T04:35:34.976Z,30.97
2019-04-07T04:38:05.919Z,29.00
2019-04-07T04:40:38.430Z,29.67
2019-04-07T04:43:10.410Z,29.90
2019-04-07T04:45:46.147Z,30.20
2019-04-07T04:48:19.695Z,29.10
2019-04-07T04:50:50.420Z,32.13
2019-04-07T04:53:19.628Z,30.23
2019-04-07T04:56:04.425Z,29.87
2019-04-07T04:58:35.967Z,30.17
2019-04-07T05:01:06.963Z,29.73
2019-04-07T05:06:24.261Z,27.03
2019-04-07T05:09:01.132Z,28.43
2019-04-07T05:11:30.561Z,27.80
2019-04-07T05:14:00.277Z,28.97
2019-04-07T05:16:31.247Z,28.30
2019-04-07T05:19:00.657Z,27.70
2019-04-07T05:21:30.344Z,28.63
2019-04-07T05:24:12.039Z,25.93
2019-04-07T05:26:43.062Z,28.10
2019-04-07T05:29:12.796Z,27.27
2019-04-07T05:31:41.825Z,26.67
2019-04-07T05:34:15.573Z,26.50
2019-04-07T05:36:43.602Z,27.23
2019-04-07T05:39:15.331Z,26.73
2019-04-07T05:41:45.003Z,25.60
2019-04-07T05:44:15.382Z,38.03
2019-04-07T05:46:49.788Z,26.67
2019-04-07T05:49:27.087Z,25.67
2019-04-07T05:52:12.759Z,26.93
2019-04-07T05:54:44.040Z,26.40
2019-04-07T06:00:04.237Z,29.60
2019-04-07T06:02:35.247Z,28.70
2019-04-07T06:05:12.623Z,25.30
2019-04-07T06:30:02.443Z,24.90
2019-04-07T06:32:22.002Z,26.87
2019-04-07T06:34:50.983Z,24.73
2019-04-07T06:37:21.015Z,24.97
2019-04-07T06:39:54.829Z,27.37
2019-04-07T06:42:24.202Z,26.50
2019-04-07T06:44:59.804Z,27.27
2019-04-07T06:47:33.502Z,26.93
2019-04-07T06:50:27.915Z,29.73
2019-04-07T06:53:24.561Z,27.67
2019-04-07T06:56:14.326Z,28.97
2019-04-07T06:59:06.775Z,30.03
2019-04-07T07:01:58.113Z,33.03
2019-04-07T07:05:00.582Z,31.80
2019-04-07T07:08:24.638Z,34.13
2019-04-07T07:11:24.619Z,47.77
2019-04-07T07:14:03.297Z,32.10
2019-04-07T07:16:58.742Z,34.83
2019-04-07T07:19:56.615Z,33.67
2019-04-07T07:22:40.283Z,34.83
2019-04-07T07:25:12.399Z,36.20
2019-04-07T07:27:47.730Z,37.47
2019-04-07T07:30:24.129Z,37.97
2019-04-07T07:32:54.178Z,39.97
2019-04-07T07:38:26.667Z,39.13
2019-04-07T07:46:31.076Z,42.50
2019-04-07T07:49:04.432Z,44.00
2019-04-07T07:54:17.237Z,44.57
2019-04-07T07:56:51.645Z,43.97
2019-04-07T07:59:30.729Z,43.67
2019-04-07T08:01:58.698Z,45.30
2019-04-07T08:04:30.233Z,47.63
2019-04-07T08:07:04.324Z,49.20
2019-04-07T08:15:45.774Z,48.03
2019-04-07T08:21:28.055Z,47.77
2019-04-07T08:24:21.903Z,48.53
2019-04-07T08:26:33.788Z,48.43
2019-04-07T08:31:51.555Z,45.47
2019-04-07T08:34:19.765Z,48.07
2019-04-07T08:36:51.937Z,46.17
2019-04-07T08:39:26.748Z,47.17
2019-04-07T08:41:54.291Z,49.90
2019-04-07T08:44:26.931Z,47.63
2019-04-07T08:46:57.808Z,51.00
2019-04-07T08:49:32.271Z,49.20
2019-04-07T08:52:09.041Z,47.33
2019-04-07T08:54:33.615Z,48.55
2019-04-07T08:57:05.701Z,45.27
2019-04-07T09:02:32.203Z,42.00
2019-04-07T21:16:40.094Z,27.77
2019-04-07T21:19:37.366Z,29.37
2019-04-07T21:22:12.468Z,31.07
2019-04-07T21:24:59.087Z,29.97
2019-04-07T21:27:52.740Z,30.33
2019-04-07T21:33:17.396Z,32.90
2019-04-07T21:36:18.562Z,33.20
2019-04-07T21:39:05.840Z,32.83
2019-04-07T21:42:01.820Z,31.97
2019-04-07T21:45:03.953Z,32.30
2019-04-07T21:47:44.084Z,32.67
2019-04-07T21:50:32.494Z,32.77
2019-04-07T21:53:30.904Z,33.40
2019-04-07T21:56:29.427Z,34.23
2019-04-07T21:59:21.508Z,34.43
2019-04-07T22:02:15.456Z,35.53
2019-04-07T22:04:56.761Z,33.17
2019-04-07T22:07:53.549Z,33.40
2019-04-07T22:10:23.097Z,32.80
2019-04-07T22:12:52.667Z,34.30
2019-04-07T22:18:13.465Z,39.73
2019-04-07T22:20:45.353Z,36.43
2019-04-07T22:23:16.689Z,37.83
2019-04-07T22:25:50.590Z,35.80
2019-04-07T22:28:30.259Z,36.77
2019-04-07T22:30:59.844Z,35.53
2019-04-07T22:33:38.949Z,37.43
2019-04-07T22:36:25.589Z,35.80
2019-04-07T22:38:58.730Z,40.53
2019-04-07T22:41:28.672Z,35.57
2019-04-07T22:44:13.393Z,38.97
2019-04-07T22:46:48.044Z,36.73
2019-04-07T22:49:32.207Z,36.57
2019-04-07T22:52:03.533Z,35.97
2019-04-07T22:54:34.858Z,36.03
2019-04-07T22:57:08.157Z,35.23
2019-04-07T22:59:34.836Z,35.27
2019-04-07T23:02:27.647Z,33.87
2019-04-07T23:04:57.081Z,33.87
2019-04-07T23:07:42.018Z,34.80
2019-04-07T23:10:11.248Z,32.13
2019-04-07T23:12:42.297Z,34.47
2019-04-07T23:15:13.465Z,32.73
2019-04-07T23:17:44.465Z,34.70
2019-04-07T23:20:17.196Z,34.37
2019-04-07T23:22:47.204Z,32.07
2019-04-07T23:25:17.608Z,34.73
2019-04-07T23:27:46.939Z,33.60
2019-04-07T23:30:17.261Z,32.10
2019-04-07T23:32:47.943Z,31.67
2019-04-07T23:35:20.105Z,31.67
2019-04-07T23:37:49.020Z,31.70
2019-04-07T23:40:22.641Z,31.47
2019-04-07T23:43:00.605Z,32.50
2019-04-07T23:45:27.431Z,32.43
2019-04-07T23:48:15.878Z,32.33
2019-04-07T23:50:47.909Z,31.30
2019-04-07T23:53:53.761Z,31.13
2019-04-07T23:56:29.703Z,31.70
2019-04-07T23:59:08.397Z,30.50
